Historyczne dane pomiarowe

Dodano dane terminowe – wersja testowa.

Dane z okresu 1951-2019

Wersja bazy: 1.34 [2019-03-16, lista zmian], aktualizacja planowana na 2019-04-15

Dane meteo z obszaru Polski uzyskane na podstawie danych udostępnionych przez Instytut Meteorologii i Gospodarki Wodnej – Państwowy Instytut Badawczy.

 

Wybierz Datę:    

       

TemperaturaWilgotnośćWiatrCiśnienieOpadyŚniegCzas trwania zjawisk
 Stacja t tx tn tng RH VA  wxwx mslp ppp RRR   cm mm wxwxwxwxwxwxwx
1999-08-14 16.1 22.3 8.2 1.7-- 2.0 3.0---- 1.4------------
1999-08-13 15.6 21.8 9.8 8.8-- 3.3 5.7---- 0.2------------
1999-08-12 14.7 19.8 10.0 8.2-- 2.7 5.0---- 0.0------------
1999-08-11 18.8 22.8 15.4 14.8-- 0.0 7.0---- 0.0------------
1999-08-10 21.1 26.7 16.0 13.6-- 5.7 4.0---- 0.0------------
1999-08-09 22.4 29.1 16.8 15.5-- 3.3 5.7---- 0.0------------
1999-08-08 23.1 29.9 18.3 17.5-- 4.0 2.3---- 0.0------------
1999-08-07 22.4 30.2 13.3 11.0-- 4.3 1.3---- 0.4------------
1999-08-06 22.7 29.5 17.5 15.5-- 4.7 2.7---- 0.0------------
1999-08-05 21.0 28.9 13.0 10.8-- 2.0 2.0---- 0.0------------
1999-08-04 20.9 27.7 12.7 10.0-- 1.0 2.0---- 0.0------------
1999-08-03 21.4 27.7 17.2 8.6-- 3.7 2.3---- 0.0------------
1999-08-02 20.2 26.9 12.0 11.5-- 4.0 3.3---- 0.0------------
1999-08-01 20.4 26.3 12.8 11.2-- 3.3 3.7---- 0.0------------
1999-07-31 20.5 27.3 12.0 11.0-- 2.0 4.0---- 0.0------------
1999-07-30 19.3 26.6 10.8 8.7-- 2.0 2.7---- 0.0------------
1999-07-29 19.3 25.5 11.7 10.6-- 2.3 3.3---- 0.0------------
1999-07-28 18.6 25.5 10.3 9.4-- 2.0 3.7---- 0.0------------
1999-07-27 17.3 22.6 10.4 8.7-- 2.3 3.7---- 0.0------------
1999-07-26 21.1 27.0 16.3 14.5-- 4.0 3.0---- 2.1------------
1999-07-25 20.1 25.7 14.5 12.5-- 6.0 2.7---- 0.2------------
1999-07-24 18.1 22.5 13.0 11.5-- 4.0 4.7---- 0.0------------
1999-07-23 17.3 21.8 11.5 9.3-- 4.7 4.3---- 0.0------------
1999-07-22 18.7 22.5 15.0 13.0-- 3.0 5.7---- 0.0------------
1999-07-21 22.4 28.5 16.7 15.8-- 3.3 5.7---- 0.0------------
1999-07-20 23.5 31.9 16.0 13.5-- 1.3 5.0---- 2.4------------
1999-07-19 24.4 30.1 15.5 12.8-- 2.0 2.3---- 0.0------------
1999-07-18 21.9 28.8 13.2 12.2-- 3.7 2.7---- 0.0------------
1999-07-17 20.7 24.8 17.2 10.5-- 3.0 3.0---- 0.0------------
1999-07-16 16.8 22.8 10.7 9.2-- 2.7 3.0---- 0.0------------
1999-07-15 17.2 21.0 14.5 13.3-- 4.3 5.7---- 0.0------------
1999-07-14 20.6 26.6 17.0 17.0-- 6.7 3.3---- 32.3------------
1999-07-13 22.4 30.1 16.8 16.5-- 3.0 5.0---- 0.0------------
1999-07-12 23.4 29.7 16.6 15.0-- 4.3 4.0---- 19.6------------
1999-07-11 21.4 27.2 12.2 11.8-- 0.7 6.0---- 0.0------------
1999-07-10 20.8 26.2 14.5 13.5-- 0.3 5.0---- 0.0------------
1999-07-09 19.4 23.9 14.5 14.5-- 4.0 6.7---- 0.0------------
1999-07-08 17.1 18.6 15.3 15.0-- 7.0 3.3---- 7.9------------
1999-07-07 19.0 24.3 16.0 16.5-- 7.0 3.7---- 0.1------------
1999-07-06 24.5 31.1 19.0 18.0-- 2.7 4.0---- 4.0------------
1999-07-05 26.2 34.2 18.0 17.5-- 1.7 5.3---- 0.0------------
1999-07-04 23.3 30.1 16.1 15.3-- 0.0 3.7---- 0.2------------
1999-07-03 20.4 26.4 13.7 12.8-- 2.0 3.0---- 0.0------------
1999-07-02 18.4 24.0 14.8 14.5-- 6.3 2.0---- 2.7------------
1999-07-01 20.3 25.5 17.0 16.0-- 7.3 2.7---- 4.9------------
1999-06-30 20.7 26.0 12.8 11.0-- 2.7 1.7---- 0.0------------
1999-06-29 19.1 23.7 12.3 11.0-- 2.3 2.7---- 0.0------------
1999-06-28 20.8 27.5 16.7 12.6-- 5.7 3.7---- 0.5------------
1999-06-27 20.4 27.0 14.0 13.5-- 3.3 4.3---- 0.0------------
1999-06-26 14.4 20.1 6.7 5.5-- 3.3 3.0---- 0.0------------
1999-06-25 13.4 19.2 8.6 8.0-- 4.0 3.7---- 0.0------------
1999-06-24 13.0 18.4 5.7 4.4-- 3.3 2.3---- 1.0------------
1999-06-23 12.8 16.5 8.2 7.9-- 6.7 4.0---- 0.0------------
1999-06-22 11.2 14.0 9.5 9.5-- 7.3 5.3---- 11.2------------
1999-06-21 15.8 20.5 11.8 11.4-- 7.0 4.7---- 4.0------------
1999-06-20 18.3 22.6 13.7 13.0-- 5.0 2.3---- 0.0------------
1999-06-19 17.8 24.1 14.0 14.0-- 8.0 2.3---- 0.0------------
1999-06-18 18.6 22.2 13.3 11.7-- 5.3 2.0---- 3.2------------
1999-06-17 18.6 22.8 14.9 13.0-- 7.0 1.3---- 0.0------------
1999-06-16 16.5 21.0 10.3 9.9-- 4.3 1.7---- 0.0------------
497.3 ms

 

Źródłem pochodzenia danych jest Instytut Meteorologii i Gospodarki Wodnej – Państwowy Instytut Badawczy. Dane Instytutu Meteorologii i Gospodarki Wodnej – Państwowego Instytutu Badawczego zostały przetworzone.

Dane źródłowe można odnaleźć na stronie https://dane.imgw.pl